sensor_id;sensor_type;location;lat;lon;timestamp;temperature;humidity
19025;DHT22;9645;51.448;6.260;2022-09-21T00:00:15;10.10;99.90
19025;DHT22;9645;51.448;6.260;2022-09-21T00:02:43;10.10;99.90
19025;DHT22;9645;51.448;6.260;2022-09-21T00:05:10;10.10;99.90
19025;DHT22;9645;51.448;6.260;2022-09-21T00:07:37;10.10;99.90
19025;DHT22;9645;51.448;6.260;2022-09-21T00:10:04;10.20;99.90
19025;DHT22;9645;51.448;6.260;2022-09-21T00:12:31;10.20;99.90
19025;DHT22;9645;51.448;6.260;2022-09-21T00:14:59;10.20;99.90
19025;DHT22;9645;51.448;6.260;2022-09-21T00:17:26;10.20;99.90
19025;DHT22;9645;51.448;6.260;2022-09-21T00:19:54;10.20;99.90
19025;DHT22;9645;51.448;6.260;2022-09-21T00:22:21;10.20;99.90
19025;DHT22;9645;51.448;6.260;2022-09-21T00:24:48;10.20;99.90
19025;DHT22;9645;51.448;6.260;2022-09-21T00:27:16;10.20;99.90
19025;DHT22;9645;51.448;6.260;2022-09-21T00:29:42;10.20;99.90
19025;DHT22;9645;51.448;6.260;2022-09-21T00:32:09;10.10;99.90
19025;DHT22;9645;51.448;6.260;2022-09-21T00:34:36;10.20;99.90
19025;DHT22;9645;51.448;6.260;2022-09-21T00:37:05;10.20;99.90
19025;DHT22;9645;51.448;6.260;2022-09-21T00:39:33;10.20;99.90
19025;DHT22;9645;51.448;6.260;2022-09-21T00:42:00;10.20;99.90
19025;DHT22;9645;51.448;6.260;2022-09-21T00:44:29;10.20;99.90
19025;DHT22;9645;51.448;6.260;2022-09-21T00:47:00;10.20;99.90
19025;DHT22;9645;51.448;6.260;2022-09-21T00:49:28;10.30;99.90
19025;DHT22;9645;51.448;6.260;2022-09-21T00:51:57;10.30;99.90
19025;DHT22;9645;51.448;6.260;2022-09-21T00:54:29;10.20;99.90
19025;DHT22;9645;51.448;6.260;2022-09-21T00:56:58;10.20;99.90
19025;DHT22;9645;51.448;6.260;2022-09-21T00:59:29;10.20;99.90
19025;DHT22;9645;51.448;6.260;2022-09-21T01:01:57;10.20;99.90
19025;DHT22;9645;51.448;6.260;2022-09-21T01:04:24;10.20;99.90
19025;DHT22;9645;51.448;6.260;2022-09-21T01:06:53;10.20;99.90
19025;DHT22;9645;51.448;6.260;2022-09-21T01:09:21;10.20;99.90
19025;DHT22;9645;51.448;6.260;2022-09-21T01:12:01;10.20;99.90
19025;DHT22;9645;51.448;6.260;2022-09-21T01:14:49;10.20;99.90
19025;DHT22;9645;51.448;6.260;2022-09-21T01:17:29;10.20;99.90
19025;DHT22;9645;51.448;6.260;2022-09-21T01:20:22;10.20;99.90
19025;DHT22;9645;51.448;6.260;2022-09-21T01:23:02;10.20;99.90
19025;DHT22;9645;51.448;6.260;2022-09-21T01:25:40;10.20;99.90
19025;DHT22;9645;51.448;6.260;2022-09-21T01:28:20;10.20;99.90
19025;DHT22;9645;51.448;6.260;2022-09-21T01:30:53;10.20;99.90
19025;DHT22;9645;51.448;6.260;2022-09-21T01:33:25;10.20;99.90
19025;DHT22;9645;51.448;6.260;2022-09-21T01:35:58;10.10;99.90
19025;DHT22;9645;51.448;6.260;2022-09-21T01:38:30;10.20;99.90
19025;DHT22;9645;51.448;6.260;2022-09-21T01:40:59;10.10;99.90
19025;DHT22;9645;51.448;6.260;2022-09-21T01:43:33;10.10;99.90
19025;DHT22;9645;51.448;6.260;2022-09-21T01:46:03;10.10;99.90
19025;DHT22;9645;51.448;6.260;2022-09-21T01:48:32;10.10;99.90
19025;DHT22;9645;51.448;6.260;2022-09-21T01:51:02;10.10;99.90
19025;DHT22;9645;51.448;6.260;2022-09-21T01:53:33;10.10;99.90
19025;DHT22;9645;51.448;6.260;2022-09-21T01:56:06;10.10;99.90
19025;DHT22;9645;51.448;6.260;2022-09-21T01:58:42;10.10;99.90
19025;DHT22;9645;51.448;6.260;2022-09-21T02:01:17;10.00;99.90
19025;DHT22;9645;51.448;6.260;2022-09-21T02:03:49;10.00;99.90
19025;DHT22;9645;51.448;6.260;2022-09-21T02:06:18;10.00;99.90
19025;DHT22;9645;51.448;6.260;2022-09-21T02:08:45;10.00;99.90
19025;DHT22;9645;51.448;6.260;2022-09-21T02:11:12;10.00;99.90
19025;DHT22;9645;51.448;6.260;2022-09-21T02:13:44;9.90;99.90
19025;DHT22;9645;51.448;6.260;2022-09-21T02:16:30;9.90;99.90
19025;DHT22;9645;51.448;6.260;2022-09-21T02:19:11;9.90;99.90
19025;DHT22;9645;51.448;6.260;2022-09-21T02:21:55;9.00;99.90
19025;DHT22;9645;51.448;6.260;2022-09-21T02:24:32;9.80;99.90
19025;DHT22;9645;51.448;6.260;2022-09-21T02:27:04;9.70;99.90
19025;DHT22;9645;51.448;6.260;2022-09-21T02:29:40;9.70;99.90
19025;DHT22;9645;51.448;6.260;2022-09-21T02:32:20;9.60;99.90
19025;DHT22;9645;51.448;6.260;2022-09-21T02:34:52;9.60;99.90
19025;DHT22;9645;51.448;6.260;2022-09-21T02:37:25;9.60;99.90
19025;DHT22;9645;51.448;6.260;2022-09-21T02:39:59;9.50;99.90
19025;DHT22;9645;51.448;6.260;2022-09-21T02:42:32;9.50;99.90
19025;DHT22;9645;51.448;6.260;2022-09-21T02:45:06;9.40;99.90
19025;DHT22;9645;51.448;6.260;2022-09-21T02:47:42;9.40;99.90
19025;DHT22;9645;51.448;6.260;2022-09-21T02:50:16;9.30;99.90
19025;DHT22;9645;51.448;6.260;2022-09-21T02:52:45;9.30;99.90
19025;DHT22;9645;51.448;6.260;2022-09-21T02:55:14;9.30;99.90
19025;DHT22;9645;51.448;6.260;2022-09-21T02:57:42;9.20;99.90
19025;DHT22;9645;51.448;6.260;2022-09-21T03:00:11;9.10;99.90
19025;DHT22;9645;51.448;6.260;2022-09-21T03:02:41;9.10;99.90
19025;DHT22;9645;51.448;6.260;2022-09-21T03:05:09;9.00;99.90
19025;DHT22;9645;51.448;6.260;2022-09-21T03:07:37;9.00;99.90
19025;DHT22;9645;51.448;6.260;2022-09-21T03:10:05;9.00;99.90
19025;DHT22;9645;51.448;6.260;2022-09-21T03:12:32;8.90;99.90
19025;DHT22;9645;51.448;6.260;2022-09-21T03:14:59;8.90;99.90
19025;DHT22;9645;51.448;6.260;2022-09-21T03:17:26;8.90;99.90
19025;DHT22;9645;51.448;6.260;2022-09-21T03:19:55;8.90;99.90
19025;DHT22;9645;51.448;6.260;2022-09-21T03:22:22;8.90;99.90
19025;DHT22;9645;51.448;6.260;2022-09-21T03:24:49;8.90;99.90
19025;DHT22;9645;51.448;6.260;2022-09-21T03:27:18;8.80;99.90
19025;DHT22;9645;51.448;6.260;2022-09-21T03:29:45;8.80;99.90
19025;DHT22;9645;51.448;6.260;2022-09-21T03:32:13;8.80;99.90
19025;DHT22;9645;51.448;6.260;2022-09-21T03:34:40;8.70;99.90
19025;DHT22;9645;51.448;6.260;2022-09-21T03:37:09;8.70;99.90
19025;DHT22;9645;51.448;6.260;2022-09-21T03:39:36;8.70;99.90
19025;DHT22;9645;51.448;6.260;2022-09-21T03:42:03;8.70;99.90
19025;DHT22;9645;51.448;6.260;2022-09-21T03:44:30;8.70;99.90
19025;DHT22;9645;51.448;6.260;2022-09-21T03:46:57;8.70;99.90
19025;DHT22;9645;51.448;6.260;2022-09-21T03:49:24;8.70;99.90
19025;DHT22;9645;51.448;6.260;2022-09-21T03:51:51;8.70;99.90
19025;DHT22;9645;51.448;6.260;2022-09-21T03:54:20;8.70;99.90
19025;DHT22;9645;51.448;6.260;2022-09-21T03:56:47;8.00;99.90
19025;DHT22;9645;51.448;6.260;2022-09-21T03:59:14;8.60;99.90
19025;DHT22;9645;51.448;6.260;2022-09-21T04:01:41;8.60;99.90
19025;DHT22;9645;51.448;6.260;2022-09-21T04:04:09;8.50;99.90
19025;DHT22;9645;51.448;6.260;2022-09-21T04:06:36;8.50;99.90
19025;DHT22;9645;51.448;6.260;2022-09-21T04:09:03;8.50;99.90
19025;DHT22;9645;51.448;6.260;2022-09-21T04:11:31;8.50;99.90
19025;DHT22;9645;51.448;6.260;2022-09-21T04:13:58;8.40;99.90
19025;DHT22;9645;51.448;6.260;2022-09-21T04:16:26;8.40;99.90
19025;DHT22;9645;51.448;6.260;2022-09-21T04:18:53;8.40;99.90
19025;DHT22;9645;51.448;6.260;2022-09-21T04:21:20;8.40;99.90
19025;DHT22;9645;51.448;6.260;2022-09-21T04:23:47;8.30;99.90
19025;DHT22;9645;51.448;6.260;2022-09-21T04:26:20;8.30;99.90
19025;DHT22;9645;51.448;6.260;2022-09-21T04:28:49;8.30;99.90
19025;DHT22;9645;51.448;6.260;2022-09-21T04:31:17;8.30;99.90
19025;DHT22;9645;51.448;6.260;2022-09-21T04:33:51;8.30;99.90
19025;DHT22;9645;51.448;6.260;2022-09-21T04:36:21;8.30;99.90
19025;DHT22;9645;51.448;6.260;2022-09-21T04:38:57;8.30;99.90
19025;DHT22;9645;51.448;6.260;2022-09-21T04:41:26;8.30;99.90
19025;DHT22;9645;51.448;6.260;2022-09-21T04:43:54;8.20;99.90
19025;DHT22;9645;51.448;6.260;2022-09-21T04:46:21;8.20;99.90
19025;DHT22;9645;51.448;6.260;2022-09-21T04:48:48;8.20;99.90
19025;DHT22;9645;51.448;6.260;2022-09-21T04:51:16;8.20;99.90
19025;DHT22;9645;51.448;6.260;2022-09-21T04:53:43;8.20;99.90
19025;DHT22;9645;51.448;6.260;2022-09-21T04:56:13;7.30;99.90
19025;DHT22;9645;51.448;6.260;2022-09-21T04:58:42;8.20;99.90
19025;DHT22;9645;51.448;6.260;2022-09-21T05:01:10;8.20;99.90
19025;DHT22;9645;51.448;6.260;2022-09-21T05:03:38;8.10;99.90
19025;DHT22;9645;51.448;6.260;2022-09-21T05:06:05;8.10;99.90
19025;DHT22;9645;51.448;6.260;2022-09-21T05:08:32;8.00;99.90
19025;DHT22;9645;51.448;6.260;2022-09-21T05:11:17;8.00;99.90
19025;DHT22;9645;51.448;6.260;2022-09-21T05:13:45;8.00;99.90
19025;DHT22;9645;51.448;6.260;2022-09-21T05:16:15;8.00;99.90
19025;DHT22;9645;51.448;6.260;2022-09-21T05:18:42;8.00;99.90
19025;DHT22;9645;51.448;6.260;2022-09-21T05:21:10;8.00;99.90
19025;DHT22;9645;51.448;6.260;2022-09-21T05:23:37;8.00;99.90
19025;DHT22;9645;51.448;6.260;2022-09-21T05:26:05;8.10;99.90
19025;DHT22;9645;51.448;6.260;2022-09-21T05:28:33;8.10;99.90
19025;DHT22;9645;51.448;6.260;2022-09-21T05:31:08;8.10;99.90
19025;DHT22;9645;51.448;6.260;2022-09-21T05:33:41;8.20;99.90
19025;DHT22;9645;51.448;6.260;2022-09-21T05:36:24;8.20;99.90
19025;DHT22;9645;51.448;6.260;2022-09-21T05:38:56;8.30;99.90
19025;DHT22;9645;51.448;6.260;2022-09-21T05:41:23;8.30;99.90
19025;DHT22;9645;51.448;6.260;2022-09-21T05:43:54;8.40;99.90
19025;DHT22;9645;51.448;6.260;2022-09-21T05:46:31;8.50;99.90
19025;DHT22;9645;51.448;6.260;2022-09-21T05:49:04;8.50;99.90
19025;DHT22;9645;51.448;6.260;2022-09-21T05:51:37;8.60;99.90
19025;DHT22;9645;51.448;6.260;2022-09-21T05:54:16;8.70;99.90
19025;DHT22;9645;51.448;6.260;2022-09-21T05:56:49;8.80;99.90
19025;DHT22;9645;51.448;6.260;2022-09-21T05:59:38;8.80;99.90
19025;DHT22;9645;51.448;6.260;2022-09-21T06:02:20;8.80;99.90
19025;DHT22;9645;51.448;6.260;2022-09-21T06:04:51;8.80;99.90
19025;DHT22;9645;51.448;6.260;2022-09-21T06:07:19;8.80;99.90
19025;DHT22;9645;51.448;6.260;2022-09-21T06:09:46;8.90;99.90
19025;DHT22;9645;51.448;6.260;2022-09-21T06:12:13;8.90;99.90
19025;DHT22;9645;51.448;6.260;2022-09-21T06:14:40;9.10;99.90
19025;DHT22;9645;51.448;6.260;2022-09-21T06:17:09;9.00;99.90
19025;DHT22;9645;51.448;6.260;2022-09-21T06:19:35;9.20;99.90
19025;DHT22;9645;51.448;6.260;2022-09-21T06:22:04;9.20;99.90
19025;DHT22;9645;51.448;6.260;2022-09-21T06:24:31;9.30;99.90
19025;DHT22;9645;51.448;6.260;2022-09-21T06:26:58;9.40;99.90
19025;DHT22;9645;51.448;6.260;2022-09-21T06:29:27;9.50;99.90
19025;DHT22;9645;51.448;6.260;2022-09-21T06:31:54;9.70;99.90
19025;DHT22;9645;51.448;6.260;2022-09-21T06:34:21;9.80;99.90
19025;DHT22;9645;51.448;6.260;2022-09-21T06:36:48;9.90;99.90
19025;DHT22;9645;51.448;6.260;2022-09-21T06:39:18;9.90;99.90
19025;DHT22;9645;51.448;6.260;2022-09-21T06:41:45;10.00;99.90
19025;DHT22;9645;51.448;6.260;2022-09-21T06:44:12;10.10;99.90
19025;DHT22;9645;51.448;6.260;2022-09-21T06:46:39;10.10;99.90
19025;DHT22;9645;51.448;6.260;2022-09-21T06:49:06;10.20;99.90
19025;DHT22;9645;51.448;6.260;2022-09-21T06:51:34;10.30;99.90
19025;DHT22;9645;51.448;6.260;2022-09-21T06:54:02;10.40;99.90
19025;DHT22;9645;51.448;6.260;2022-09-21T06:56:31;10.50;99.90
19025;DHT22;9645;51.448;6.260;2022-09-21T06:58:58;10.60;99.90
19025;DHT22;9645;51.448;6.260;2022-09-21T07:01:26;10.70;99.90
19025;DHT22;9645;51.448;6.260;2022-09-21T07:03:53;10.80;99.90
19025;DHT22;9645;51.448;6.260;2022-09-21T07:06:20;11.00;99.90
19025;DHT22;9645;51.448;6.260;2022-09-21T07:08:50;11.10;99.90
19025;DHT22;9645;51.448;6.260;2022-09-21T07:11:17;11.30;99.90
19025;DHT22;9645;51.448;6.260;2022-09-21T07:13:45;11.50;99.90
19025;DHT22;9645;51.448;6.260;2022-09-21T07:16:12;11.70;99.90
19025;DHT22;9645;51.448;6.260;2022-09-21T07:18:40;12.20;99.90
19025;DHT22;9645;51.448;6.260;2022-09-21T07:21:08;13.70;99.90
19025;DHT22;9645;51.448;6.260;2022-09-21T07:23:36;15.40;99.90
19025;DHT22;9645;51.448;6.260;2022-09-21T07:26:05;15.90;99.90
19025;DHT22;9645;51.448;6.260;2022-09-21T07:28:33;15.40;99.90
19025;DHT22;9645;51.448;6.260;2022-09-21T07:31:07;14.90;99.90
19025;DHT22;9645;51.448;6.260;2022-09-21T07:33:35;14.50;99.90
19025;DHT22;9645;51.448;6.260;2022-09-21T07:36:03;14.20;99.90
19025;DHT22;9645;51.448;6.260;2022-09-21T07:38:35;14.00;99.90
19025;DHT22;9645;51.448;6.260;2022-09-21T07:41:02;13.70;99.90
19025;DHT22;9645;51.448;6.260;2022-09-21T07:43:29;13.70;99.90
19025;DHT22;9645;51.448;6.260;2022-09-21T07:45:56;13.50;99.90
19025;DHT22;9645;51.448;6.260;2022-09-21T07:48:25;13.60;99.90
19025;DHT22;9645;51.448;6.260;2022-09-21T07:50:53;13.80;99.90
19025;DHT22;9645;51.448;6.260;2022-09-21T07:53:22;15.60;99.90
19025;DHT22;9645;51.448;6.260;2022-09-21T07:55:49;18.80;99.90
19025;DHT22;9645;51.448;6.260;2022-09-21T07:58:16;21.60;99.90
19025;DHT22;9645;51.448;6.260;2022-09-21T08:01:04;22.70;99.90
19025;DHT22;9645;51.448;6.260;2022-09-21T08:18:23;30.90;72.20
19025;DHT22;9645;51.448;6.260;2022-09-21T08:20:54;31.00;70.30
19025;DHT22;9645;51.448;6.260;2022-09-21T08:23:22;30.10;64.10
19025;DHT22;9645;51.448;6.260;2022-09-21T08:25:50;30.80;63.10
19025;DHT22;9645;51.448;6.260;2022-09-21T08:28:17;30.50;57.90
19025;DHT22;9645;51.448;6.260;2022-09-21T08:30:44;31.10;60.60
19025;DHT22;9645;51.448;6.260;2022-09-21T08:33:11;31.20;60.90
19025;DHT22;9645;51.448;6.260;2022-09-21T08:35:39;32.00;59.10
19025;DHT22;9645;51.448;6.260;2022-09-21T08:38:07;32.80;57.10
19025;DHT22;9645;51.448;6.260;2022-09-21T08:40:34;32.70;54.20
19025;DHT22;9645;51.448;6.260;2022-09-21T08:43:04;32.60;55.00
19025;DHT22;9645;51.448;6.260;2022-09-21T08:45:38;32.90;52.00
19025;DHT22;9645;51.448;6.260;2022-09-21T09:00:39;34.50;46.70
19025;DHT22;9645;51.448;6.260;2022-09-21T09:05:59;34.50;46.40
19025;DHT22;9645;51.448;6.260;2022-09-21T09:08:58;34.60;46.00
19025;DHT22;9645;51.448;6.260;2022-09-21T09:11:40;34.50;46.10
19025;DHT22;9645;51.448;6.260;2022-09-21T09:14:35;34.60;46.40
19025;DHT22;9645;51.448;6.260;2022-09-21T09:17:21;34.40;43.40
19025;DHT22;9645;51.448;6.260;2022-09-21T09:19:55;34.90;43.40
19025;DHT22;9645;51.448;6.260;2022-09-21T09:22:27;34.50;43.80
19025;DHT22;9645;51.448;6.260;2022-09-21T09:25:00;34.60;42.60
19025;DHT22;9645;51.448;6.260;2022-09-21T09:27:32;34.40;44.50
19025;DHT22;9645;51.448;6.260;2022-09-21T09:30:03;34.40;44.70
19025;DHT22;9645;51.448;6.260;2022-09-21T09:32:35;35.30;45.70
19025;DHT22;9645;51.448;6.260;2022-09-21T09:35:15;35.90;43.00
19025;DHT22;9645;51.448;6.260;2022-09-21T09:37:44;36.10;43.20
19025;DHT22;9645;51.448;6.260;2022-09-21T09:40:15;36.10;41.90
19025;DHT22;9645;51.448;6.260;2022-09-21T09:42:52;36.30;41.00
19025;DHT22;9645;51.448;6.260;2022-09-21T09:45:33;36.50;38.70
19025;DHT22;9645;51.448;6.260;2022-09-21T09:48:34;36.60;37.80
19025;DHT22;9645;51.448;6.260;2022-09-21T09:51:09;36.20;40.60
19025;DHT22;9645;51.448;6.260;2022-09-21T09:53:37;36.40;38.80
19025;DHT22;9645;51.448;6.260;2022-09-21T09:56:08;35.90;38.80
19025;DHT22;9645;51.448;6.260;2022-09-21T09:58:41;36.30;39.20
19025;DHT22;9645;51.448;6.260;2022-09-21T10:01:35;36.30;36.80
19025;DHT22;9645;51.448;6.260;2022-09-21T10:04:04;36.30;38.40
19025;DHT22;9645;51.448;6.260;2022-09-21T10:06:32;35.00;35.60
19025;DHT22;9645;51.448;6.260;2022-09-21T10:08:59;33.40;40.20
19025;DHT22;9645;51.448;6.260;2022-09-21T10:11:36;33.60;41.50
19025;DHT22;9645;51.448;6.260;2022-09-21T10:14:08;33.40;38.90
19025;DHT22;9645;51.448;6.260;2022-09-21T10:16:40;31.80;40.70
19025;DHT22;9645;51.448;6.260;2022-09-21T10:19:14;30.80;43.80
19025;DHT22;9645;51.448;6.260;2022-09-21T10:21:42;31.60;44.70
19025;DHT22;9645;51.448;6.260;2022-09-21T10:24:19;32.20;40.80
19025;DHT22;9645;51.448;6.260;2022-09-21T10:26:50;32.30;39.60
19025;DHT22;9645;51.448;6.260;2022-09-21T10:29:29;31.50;40.90
19025;DHT22;9645;51.448;6.260;2022-09-21T10:31:58;29.90;43.60
19025;DHT22;9645;51.448;6.260;2022-09-21T10:34:27;28.20;45.70
19025;DHT22;9645;51.448;6.260;2022-09-21T10:36:56;26.60;49.00
19025;DHT22;9645;51.448;6.260;2022-09-21T10:39:29;26.40;57.50
19025;DHT22;9645;51.448;6.260;2022-09-21T10:42:00;28.00;55.40
19025;DHT22;9645;51.448;6.260;2022-09-21T10:44:36;29.10;55.20
19025;DHT22;9645;51.448;6.260;2022-09-21T10:47:18;31.10;47.30
19025;DHT22;9645;51.448;6.260;2022-09-21T10:49:47;32.50;46.00
19025;DHT22;9645;51.448;6.260;2022-09-21T10:52:15;33.20;40.70
19025;DHT22;9645;51.448;6.260;2022-09-21T10:54:44;32.00;41.60
19025;DHT22;9645;51.448;6.260;2022-09-21T10:57:18;30.70;43.60
19025;DHT22;9645;51.448;6.260;2022-09-21T10:59:45;29.80;44.20
19025;DHT22;9645;51.448;6.260;2022-09-21T11:02:36;29.70;47.10
19025;DHT22;9645;51.448;6.260;2022-09-21T11:05:10;30.20;46.50
19025;DHT22;9645;51.448;6.260;2022-09-21T11:07:44;29.30;46.30
19025;DHT22;9645;51.448;6.260;2022-09-21T11:10:18;28.10;47.30
19025;DHT22;9645;51.448;6.260;2022-09-21T11:12:55;28.10;52.40
19025;DHT22;9645;51.448;6.260;2022-09-21T11:15:35;29.90;49.90
19025;DHT22;9645;51.448;6.260;2022-09-21T11:18:08;31.40;48.10
19025;DHT22;9645;51.448;6.260;2022-09-21T11:20:45;32.70;43.90
19025;DHT22;9645;51.448;6.260;2022-09-21T11:23:24;33.70;42.60
19025;DHT22;9645;51.448;6.260;2022-09-21T11:25:57;34.60;43.20
19025;DHT22;9645;51.448;6.260;2022-09-21T11:28:32;34.80;38.50
19025;DHT22;9645;51.448;6.260;2022-09-21T11:31:25;34.50;37.10
19025;DHT22;9645;51.448;6.260;2022-09-21T11:34:16;34.50;37.90
19025;DHT22;9645;51.448;6.260;2022-09-21T11:36:54;34.40;36.40
19025;DHT22;9645;51.448;6.260;2022-09-21T11:39:42;34.10;36.00
19025;DHT22;9645;51.448;6.260;2022-09-21T11:42:19;33.90;36.40
19025;DHT22;9645;51.448;6.260;2022-09-21T11:44:53;33.80;35.30
19025;DHT22;9645;51.448;6.260;2022-09-21T11:47:39;33.30;34.50
19025;DHT22;9645;51.448;6.260;2022-09-21T11:50:24;33.40;36.10
19025;DHT22;9645;51.448;6.260;2022-09-21T11:53:01;33.60;36.90
19025;DHT22;9645;51.448;6.260;2022-09-21T11:55:52;34.10;37.00
19025;DHT22;9645;51.448;6.260;2022-09-21T11:58:29;34.80;36.70
19025;DHT22;9645;51.448;6.260;2022-09-21T12:01:09;34.30;34.50
19025;DHT22;9645;51.448;6.260;2022-09-21T12:03:51;34.30;35.80
19025;DHT22;9645;51.448;6.260;2022-09-21T12:06:36;34.00;34.50
19025;DHT22;9645;51.448;6.260;2022-09-21T12:09:24;33.00;34.30
19025;DHT22;9645;51.448;6.260;2022-09-21T12:12:00;32.40;38.30
19025;DHT22;9645;51.448;6.260;2022-09-21T12:14:33;32.70;37.30
19025;DHT22;9645;51.448;6.260;2022-09-21T12:17:15;32.90;38.70
19025;DHT22;9645;51.448;6.260;2022-09-21T12:19:46;33.00;37.40
19025;DHT22;9645;51.448;6.260;2022-09-21T12:22:20;33.00;36.80
19025;DHT22;9645;51.448;6.260;2022-09-21T12:24:50;32.80;36.80
19025;DHT22;9645;51.448;6.260;2022-09-21T12:27:24;32.70;37.10
19025;DHT22;9645;51.448;6.260;2022-09-21T12:29:56;32.10;34.70
19025;DHT22;9645;51.448;6.260;2022-09-21T12:32:38;31.80;35.30
19025;DHT22;9645;51.448;6.260;2022-09-21T12:35:15;31.30;35.00
19025;DHT22;9645;51.448;6.260;2022-09-21T12:37:47;30.30;37.20
19025;DHT22;9645;51.448;6.260;2022-09-21T12:40:19;29.90;38.70
19025;DHT22;9645;51.448;6.260;2022-09-21T12:42:54;29.20;39.10
19025;DHT22;9645;51.448;6.260;2022-09-21T12:45:27;28.90;40.80
19025;DHT22;9645;51.448;6.260;2022-09-21T12:48:01;27.70;40.70
19025;DHT22;9645;51.448;6.260;2022-09-21T12:50:34;26.50;42.40
19025;DHT22;9645;51.448;6.260;2022-09-21T12:53:03;25.50;43.60
19025;DHT22;9645;51.448;6.260;2022-09-21T12:55:37;24.60;46.60
19025;DHT22;9645;51.448;6.260;2022-09-21T12:58:09;23.90;54.70
19025;DHT22;9645;51.448;6.260;2022-09-21T13:00:43;23.30;59.00
19025;DHT22;9645;51.448;6.260;2022-09-21T13:03:18;23.00;58.00
19025;DHT22;9645;51.448;6.260;2022-09-21T13:06:01;22.50;55.50
19025;DHT22;9645;51.448;6.260;2022-09-21T13:08:35;22.00;56.00
19025;DHT22;9645;51.448;6.260;2022-09-21T13:11:05;21.70;56.50
19025;DHT22;9645;51.448;6.260;2022-09-21T13:13:37;21.40;61.80
19025;DHT22;9645;51.448;6.260;2022-09-21T13:16:14;21.30;62.00
19025;DHT22;9645;51.448;6.260;2022-09-21T13:18:54;20.70;65.40
19025;DHT22;9645;51.448;6.260;2022-09-21T13:21:24;20.50;70.20
19025;DHT22;9645;51.448;6.260;2022-09-21T13:23:55;20.00;73.90
19025;DHT22;9645;51.448;6.260;2022-09-21T13:26:37;20.00;74.90
19025;DHT22;9645;51.448;6.260;2022-09-21T13:29:24;19.80;76.60
19025;DHT22;9645;51.448;6.260;2022-09-21T13:31:55;19.50;77.90
19025;DHT22;9645;51.448;6.260;2022-09-21T13:34:29;19.30;80.20
19025;DHT22;9645;51.448;6.260;2022-09-21T13:37:31;19.20;82.50
19025;DHT22;9645;51.448;6.260;2022-09-21T13:43:23;19.10;85.20
19025;DHT22;9645;51.448;6.260;2022-09-21T13:45:55;18.90;85.70
19025;DHT22;9645;51.448;6.260;2022-09-21T13:48:27;18.80;85.80
19025;DHT22;9645;51.448;6.260;2022-09-21T13:51:08;18.60;87.80
19025;DHT22;9645;51.448;6.260;2022-09-21T13:53:38;18.50;90.80
19025;DHT22;9645;51.448;6.260;2022-09-21T13:56:13;18.60;91.60
19025;DHT22;9645;51.448;6.260;2022-09-21T13:58:44;18.60;89.80
19025;DHT22;9645;51.448;6.260;2022-09-21T14:01:15;18.60;90.30
19025;DHT22;9645;51.448;6.260;2022-09-21T14:03:45;18.60;92.70
19025;DHT22;9645;51.448;6.260;2022-09-21T14:06:16;18.50;92.10
19025;DHT22;9645;51.448;6.260;2022-09-21T14:08:48;18.60;92.50
19025;DHT22;9645;51.448;6.260;2022-09-21T14:11:21;18.70;92.40
19025;DHT22;9645;51.448;6.260;2022-09-21T14:14:02;19.10;93.50
19025;DHT22;9645;51.448;6.260;2022-09-21T14:16:53;19.70;91.50
19025;DHT22;9645;51.448;6.260;2022-09-21T14:22:41;20.80;86.40
19025;DHT22;9645;51.448;6.260;2022-09-21T14:25:25;21.00;82.20
19025;DHT22;9645;51.448;6.260;2022-09-21T14:27:57;21.20;78.70
19025;DHT22;9645;51.448;6.260;2022-09-21T14:30:26;21.10;87.90
19025;DHT22;9645;51.448;6.260;2022-09-21T14:33:15;21.30;83.30
19025;DHT22;9645;51.448;6.260;2022-09-21T14:35:45;21.80;79.10
19025;DHT22;9645;51.448;6.260;2022-09-21T14:38:18;21.90;78.30
19025;DHT22;9645;51.448;6.260;2022-09-21T14:40:49;21.90;71.00
19025;DHT22;9645;51.448;6.260;2022-09-21T14:43:23;21.90;76.20
19025;DHT22;9645;51.448;6.260;2022-09-21T14:46:12;21.90;74.70
19025;DHT22;9645;51.448;6.260;2022-09-21T14:48:50;22.00;74.60
19025;DHT22;9645;51.448;6.260;2022-09-21T14:51:25;22.00;77.10
19025;DHT22;9645;51.448;6.260;2022-09-21T14:54:16;21.80;71.90
19025;DHT22;9645;51.448;6.260;2022-09-21T14:57:01;21.70;72.00
19025;DHT22;9645;51.448;6.260;2022-09-21T14:59:49;21.80;74.10
19025;DHT22;9645;51.448;6.260;2022-09-21T15:02:21;21.80;76.00
19025;DHT22;9645;51.448;6.260;2022-09-21T15:05:07;21.90;69.90
19025;DHT22;9645;51.448;6.260;2022-09-21T15:07:44;21.80;72.30
19025;DHT22;9645;51.448;6.260;2022-09-21T15:10:35;21.80;73.00
19025;DHT22;9645;51.448;6.260;2022-09-21T15:13:44;21.70;74.20
19025;DHT22;9645;51.448;6.260;2022-09-21T15:16:31;21.70;72.40
19025;DHT22;9645;51.448;6.260;2022-09-21T15:19:11;21.40;68.10
19025;DHT22;9645;51.448;6.260;2022-09-21T15:21:40;21.10;75.00
19025;DHT22;9645;51.448;6.260;2022-09-21T15:24:25;20.90;70.40
19025;DHT22;9645;51.448;6.260;2022-09-21T15:27:02;20.80;71.80
19025;DHT22;9645;51.448;6.260;2022-09-21T15:29:31;20.60;69.60
19025;DHT22;9645;51.448;6.260;2022-09-21T15:31:59;20.20;71.80
19025;DHT22;9645;51.448;6.260;2022-09-21T15:34:29;19.90;74.50
19025;DHT22;9645;51.448;6.260;2022-09-21T15:37:06;19.60;74.80
19025;DHT22;9645;51.448;6.260;2022-09-21T15:39:33;19.40;80.00
19025;DHT22;9645;51.448;6.260;2022-09-21T15:42:26;19.20;78.90
19025;DHT22;9645;51.448;6.260;2022-09-21T15:45:09;19.00;81.20
19025;DHT22;9645;51.448;6.260;2022-09-21T15:47:37;18.80;84.10
19025;DHT22;9645;51.448;6.260;2022-09-21T15:50:11;18.60;86.10
19025;DHT22;9645;51.448;6.260;2022-09-21T15:52:41;18.50;88.90
19025;DHT22;9645;51.448;6.260;2022-09-21T15:55:15;18.40;90.00
19025;DHT22;9645;51.448;6.260;2022-09-21T15:57:47;18.50;91.80
19025;DHT22;9645;51.448;6.260;2022-09-21T16:00:21;18.60;91.90
19025;DHT22;9645;51.448;6.260;2022-09-21T16:03:00;18.80;90.30
19025;DHT22;9645;51.448;6.260;2022-09-21T16:05:32;18.90;88.20
19025;DHT22;9645;51.448;6.260;2022-09-21T16:08:15;18.80;89.50
19025;DHT22;9645;51.448;6.260;2022-09-21T16:10:42;18.70;86.80
19025;DHT22;9645;51.448;6.260;2022-09-21T16:13:17;18.20;88.40
19025;DHT22;9645;51.448;6.260;2022-09-21T16:16:02;18.70;88.00
19025;DHT22;9645;51.448;6.260;2022-09-21T16:18:32;18.60;90.30
19025;DHT22;9645;51.448;6.260;2022-09-21T16:21:22;18.60;90.60
19025;DHT22;9645;51.448;6.260;2022-09-21T16:23:57;18.40;89.20
19025;DHT22;9645;51.448;6.260;2022-09-21T16:26:27;18.30;90.20
19025;DHT22;9645;51.448;6.260;2022-09-21T16:29:16;18.20;90.70
19025;DHT22;9645;51.448;6.260;2022-09-21T16:31:44;18.00;90.80
19025;DHT22;9645;51.448;6.260;2022-09-21T16:34:22;18.40;91.10
19025;DHT22;9645;51.448;6.260;2022-09-21T16:36:57;17.70;91.10
19025;DHT22;9645;51.448;6.260;2022-09-21T16:39:26;17.50;91.90
19025;DHT22;9645;51.448;6.260;2022-09-21T16:42:00;17.30;93.10
19025;DHT22;9645;51.448;6.260;2022-09-21T16:44:30;17.10;93.90
19025;DHT22;9645;51.448;6.260;2022-09-21T16:47:11;17.00;96.90
19025;DHT22;9645;51.448;6.260;2022-09-21T16:49:39;16.80;99.70
19025;DHT22;9645;51.448;6.260;2022-09-21T16:52:06;16.70;99.90
19025;DHT22;9645;51.448;6.260;2022-09-21T16:54:33;16.50;99.90
19025;DHT22;9645;51.448;6.260;2022-09-21T16:57:03;16.40;99.90
19025;DHT22;9645;51.448;6.260;2022-09-21T16:59:32;16.40;99.90
19025;DHT22;9645;51.448;6.260;2022-09-21T17:02:01;16.20;99.90